Portada
METAR-TAF:

METAR-TAF

Aeroports :

Wakkanai, Japó

latitud: 45-24N, longitud: 141-48E, altitud: 8 m

Observació

L'informe es va fer fa 1 hora i 23 minuts, a les 09:00 UTC
Vent 6 kt del Sud, variant entre Sud-Est i Sud/Sud-Oest
Temperatura 13°C
Humitat 41%
Pressió 1005 hPa
Visibilitat 10 km o més
sense núvols per sota de 1500 mi sense presència de cumulonimbus.

METAR: RJCW 180900Z 17006KT 130V200 CAVOK 13/00 Q1005

Hora: 19:23 (10:23 UTC)


TAF: manca

Observacions i pronòstics meteorològics de més de 4000 aeroports (METAR i TAF).

Les estacions disponibles són els punts grocs i vermells al mapa.

Posi el ratolí al punt desitjat per veure el nom de l'estació.

Feu clic per veure les observacions i els pronòstics meteorològics.

Per canviar el mapa: feu clic els botons verds amb una creu de color negre per apropar; al botó verd amb un guió per allunyar la imatge; o en les fletxes verdes per a mapes adjacents.


METAR-TAF: